Time;durP1;ratioP1;P1;durP2;ratioP2;P2;SDS_P1;SDS_P2;PMS_P1;PMS_P2;Temp;Humidity;BMP_temperature;BMP_pressure;BME280_temperature;BME280_humidity;BME280_pressure;Samples;Min_cycle;Max_cycle;Signal;HPM_P1;HPM_P2
2022/10/20 04:21:21;;;;;;;10.43;7.03;;;;;;;4.13;100.00;101343.06;5570749;31;173651;-86
2022/10/20 04:24:24;;;;;;;9.90;6.20;;;;;;;4.08;100.00;101352.72;5548765;32;32972;-87
2022/10/20 04:27:27;;;;;;;10.68;6.37;;;;;;;4.02;100.00;101344.00;5545584;32;32584;-87
2022/10/20 04:30:33;;;;;;;10.82;6.35;;;;;;;4.01;100.00;101344.00;5547005;32;34053;-87
2022/10/20 04:33:36;;;;;;;9.02;5.93;;;;;;;3.97;100.00;101348.41;5546729;32;34585;-87
2022/10/20 04:36:38;;;;;;;9.55;6.43;;;;;;;3.93;100.00;101344.06;5546047;32;34473;-86
2022/10/20 04:39:41;;;;;;;7.85;5.95;;;;;;;3.87;100.00;101350.22;5546758;32;33482;-87
2022/10/20 04:42:44;;;;;;;8.63;6.45;;;;;;;3.83;100.00;101342.37;5547036;32;33844;-87
2022/10/20 04:45:46;;;;;;;8.63;6.22;;;;;;;3.81;100.00;101342.37;5548618;32;34018;-87
2022/10/20 04:48:49;;;;;;;10.50;6.45;;;;;;;3.80;100.00;101342.37;5554228;32;33669;-87
2022/10/20 04:51:51;;;;;;;10.57;6.68;;;;;;;3.77;100.00;101340.62;5552854;32;35280;-86
2022/10/20 04:54:59;;;;;;;12.00;6.93;;;;;;;3.78;100.00;101347.66;5561155;32;34224;-87
2022/10/20 04:58:01;;;;;;;10.95;6.97;;;;;;;3.78;100.00;101351.13;5561001;32;35136;-87
2022/10/20 05:01:09;;;;;;;14.20;7.60;;;;;;;3.83;100.00;101351.09;5552971;32;34354;-87
2022/10/20 05:04:19;;;;;;;10.55;7.32;;;;;;;3.90;100.00;101347.59;5585068;26;33995;-87
2022/10/20 05:07:23;;;;;;;10.60;7.50;;;;;;;3.87;100.00;101349.34;5598472;26;34268;-85
2022/10/20 05:10:27;;;;;;;14.07;7.57;;;;;;;3.85;100.00;101358.97;5545771;32;34124;-86
2022/10/20 05:13:31;;;;;;;13.32;7.47;;;;;;;3.98;100.00;101352.75;5551682;32;34240;-86
2022/10/20 05:41:17;;;;;;;14.13;8.55;;;;;;;4.02;100.00;101403.53;5513392;32;32795;-87
2022/10/20 05:48:03;;;;;;;17.15;8.70;;;;;;;4.21;100.00;101404.28;2325746;26;20085;-87
2022/10/20 05:51:26;;;;;;;12.65;8.30;;;;;;;4.35;100.00;101412.06;5545687;32;32794;-88
2022/10/20 05:54:28;;;;;;;14.50;8.95;;;;;;;4.43;100.00;101417.28;5538607;32;33956;-88
2022/10/20 05:57:31;;;;;;;15.02;9.18;;;;;;;4.67;100.00;101417.97;5545633;32;35203;-88
2022/10/20 06:00:51;;;;;;;12.73;8.65;;;;;;;4.89;100.00;101423.91;5608138;26;33631;-87
2022/10/20 06:03:56;;;;;;;17.50;9.98;;;;;;;4.95;100.00;101417.69;5518418;32;34418;-86
2022/10/20 06:06:58;;;;;;;15.70;9.25;;;;;;;5.09;100.00;101425.47;5529440;32;34978;-86
2022/10/20 06:10:06;;;;;;;16.92;9.80;;;;;;;5.11;100.00;101432.47;5538633;32;33951;-87
2022/10/20 06:13:09;;;;;;;13.93;8.95;;;;;;;5.09;100.00;101438.62;5522537;32;32524;-85
2022/10/20 06:16:14;;;;;;;14.55;8.57;;;;;;;5.10;100.00;101440.34;5524873;32;34089;-85
2022/10/20 06:19:18;;;;;;;14.68;8.57;;;;;;;5.07;100.00;101438.62;5507071;32;33366;-90
2022/10/20 06:22:21;;;;;;;14.95;8.50;;;;;;;5.24;100.00;101445.47;5528778;32;35164;-90
2022/10/20 06:25:25;;;;;;;13.20;8.70;;;;;;;5.35;100.00;101448.88;5512120;32;32573;-90
2022/10/20 06:28:30;;;;;;;14.68;8.60;;;;;;;5.38;100.00;101454.09;5520915;32;34584;-87
2022/10/20 06:31:37;;;;;;;17.17;9.20;;;;;;;5.40;100.00;101461.97;5535130;32;33807;-84
2022/10/20 06:34:40;;;;;;;17.52;8.23;;;;;;;5.43;100.00;101469.81;5523808;32;33042;-86
2022/10/20 06:37:43;;;;;;;21.77;9.65;;;;;;;5.52;100.00;101463.59;5515369;32;32506;-85
2022/10/20 06:40:53;;;;;;;14.20;9.15;;;;;;;5.56;100.00;101462.69;5522121;32;33900;-87
2022/10/20 06:44:40;;;;;;;15.20;9.38;;;;;;;5.76;100.00;101470.34;5538802;32;34886;-87
2022/10/20 06:48:09;;;;;;;18.08;9.35;;;;;;;5.83;100.00;101473.75;6024588;26;35490;-86
2022/10/20 06:51:22;;;;;;;16.45;8.63;;;;;;;5.85;100.00;101468.50;5544911;32;35048;-88
2022/10/20 07:05:55;;;;;;;17.10;8.10;;;;;;;6.48;100.00;101485.22;5500707;32;20111;-86
2022/10/20 07:09:00;;;;;;;13.62;8.35;;;;;;;6.69;100.00;101484.03;5498443;32;33819;-85
2022/10/20 07:12:02;;;;;;;9.85;8.10;;;;;;;6.90;100.00;101491.63;5490020;32;34148;-86
2022/10/20 07:15:05;;;;;;;12.37;7.72;;;;;;;7.36;100.00;101496.12;5492343;32;34035;-87
2022/10/20 07:21:41;;;;;;;19.77;9.98;;;;;;;7.99;100.00;101501.06;5465237;32;34112;-87
2022/10/20 07:24:47;;;;;;;24.00;10.23;;;;;;;9.06;96.54;101492.50;5476329;32;33975;-90
2022/10/20 07:27:50;;;;;;;16.23;9.88;;;;;;;10.66;88.43;101492.38;5452813;32;33063;-88
2022/10/20 07:30:54;;;;;;;17.30;10.20;;;;;;;12.18;76.39;101499.56;5475032;32;33216;-89
2022/10/20 07:49:20;;;;;;;14.90;8.35;;;;;;;16.91;56.38;101488.56;5499997;32;20084;-88
2022/10/20 07:52:51;;;;;;;15.60;8.05;;;;;;;16.53;55.85;101485.34;5480993;32;34731;-87
2022/10/20 07:55:53;;;;;;;12.40;7.90;;;;;;;21.09;41.14;101496.62;5495070;32;34039;-86
2022/10/20 07:58:57;;;;;;;13.27;7.57;;;;;;;19.97;42.56;101489.53;5482659;32;33242;-87
2022/10/20 08:01:59;;;;;;;13.15;8.60;;;;;;;16.45;50.57;101500.97;5499110;32;33951;-86
2022/10/20 08:05:02;;;;;;;13.90;9.43;;;;;;;16.89;52.50;101490.47;5479509;32;32989;-86
2022/10/20 08:08:05;;;;;;;8.02;6.57;;;;;;;16.82;50.72;101490.81;5497245;32;34370;-88
2022/10/20 08:11:09;;;;;;;10.95;5.93;;;;;;;15.54;52.53;101488.06;5507305;27;32522;-89
2022/10/20 08:14:15;;;;;;;10.02;6.03;;;;;;;14.42;55.77;101484.66;5476472;32;33764;-88
2022/10/20 08:17:18;;;;;;;8.98;5.82;;;;;;;14.08;57.36;101493.41;5474677;32;34132;-89
2022/10/20 08:20:25;;;;;;;7.82;5.93;;;;;;;14.14;57.35;101493.12;5478547;32;34113;-88
2022/10/20 08:23:37;;;;;;;7.30;6.32;;;;;;;13.39;60.21;101488.44;5464579;32;32452;-88
2022/10/20 08:26:40;;;;;;;9.40;6.37;;;;;;;14.12;57.57;101493.19;5481620;32;33746;-90
2022/10/20 08:29:43;;;;;;;8.82;5.75;;;;;;;15.58;53.77;101501.16;5496645;32;33747;-90
2022/10/20 08:33:05;;;;;;;10.10;6.00;;;;;;;16.47;50.40;101492.84;5502107;26;35223;-88
2022/10/20 08:36:11;;;;;;;6.95;5.37;;;;;;;16.79;48.75;101499.03;5453246;32;33483;-87
2022/10/20 08:39:15;;;;;;;5.57;4.80;;;;;;;17.69;47.64;101500.03;5569810;27;32429;-86
2022/10/20 08:42:18;;;;;;;10.55;5.18;;;;;;;16.91;47.97;101500.16;5474126;32;32557;-88
2022/10/20 08:45:24;;;;;;;6.45;4.82;;;;;;;15.02;52.58;101498.69;5479714;32;32595;-87
2022/10/20 08:48:31;;;;;;;7.20;4.37;;;;;;;14.05;57.61;101499.75;5491064;32;34125;-87
2022/10/20 08:51:38;;;;;;;13.85;4.80;;;;;;;13.98;58.22;101503.63;5495211;32;35021;-86
2022/10/20 08:54:41;;;;;;;6.78;5.20;;;;;;;14.72;60.36;101493.06;5497201;32;34857;-87
2022/10/20 08:57:48;;;;;;;6.90;4.85;;;;;;;14.19;57.65;101501.78;5495010;32;34955;-86
2022/10/20 09:12:40;;;;;;;9.32;5.00;;;;;;;14.58;59.73;101501.72;3680158;27;20467;-91
2022/10/20 09:15:44;;;;;;;10.23;5.43;;;;;;;14.90;60.79;101510.00;5488008;32;33816;-92
2022/10/20 09:18:54;;;;;;;5.82;5.20;;;;;;;15.25;55.93;101510.00;5492263;32;33713;-91
2022/10/20 09:22:04;;;;;;;8.60;5.80;;;;;;;15.34;55.02;101506.84;5504325;32;35242;-88
2022/10/20 09:25:16;;;;;;;10.73;5.93;;;;;;;15.10;54.91;101503.66;5487570;32;32421;-87
2022/10/20 09:28:22;;;;;;;8.55;5.55;;;;;;;14.77;55.81;101507.94;5528932;26;34595;-88
2022/10/20 09:31:34;;;;;;;6.45;5.03;;;;;;;14.73;56.09;101505.47;5503999;32;34015;-88
2022/10/20 09:34:52;;;;;;;10.68;5.40;;;;;;;15.00;54.39;101511.28;5536934;26;32399;-88
2022/10/20 09:38:17;;;;;;;10.70;4.93;;;;;;;15.00;54.55;101503.25;5497156;32;33522;-88
2022/10/20 09:41:23;;;;;;;8.85;5.37;;;;;;;15.49;55.54;101507.00;5469002;32;34017;-89
2022/10/20 09:48:15;;;;;;;7.43;5.45;;;;;;;16.19;51.50;101508.66;5545054;26;20067;-88
2022/10/20 09:51:23;;;;;;;14.80;5.05;;;;;;;16.55;50.30;101512.88;5484313;32;33623;-89
2022/10/20 09:54:27;;;;;;;13.05;4.50;;;;;;;17.02;49.29;101507.56;5496423;32;33586;-90
2022/10/20 09:57:30;;;;;;;8.48;5.28;;;;;;;17.09;49.40;101505.38;5491695;32;35201;-88
2022/10/20 10:00:44;;;;;;;12.70;5.60;;;;;;;17.21;48.68;101499.28;5498244;32;34077;-91
2022/10/20 10:03:54;;;;;;;8.70;5.28;;;;;;;16.84;49.80;101505.00;5493715;32;34129;-87
2022/10/20 10:06:57;;;;;;;7.32;5.72;;;;;;;17.26;48.82;101499.03;5490318;32;32637;-87
2022/10/20 10:10:32;;;;;;;7.45;5.60;;;;;;;16.41;50.11;101508.31;5484111;32;32726;-87
2022/10/20 10:13:42;;;;;;;16.45;5.78;;;;;;;16.67;49.26;101500.63;5467678;32;32630;-87
2022/10/20 10:16:45;;;;;;;8.27;5.90;;;;;;;17.60;47.75;101491.59;5495253;32;33716;-86
2022/10/20 10:19:48;;;;;;;7.65;6.10;;;;;;;17.23;48.06;101488.47;5495953;32;34017;-87
2022/10/20 10:26:44;;;;;;;8.32;5.03;;;;;;;17.50;47.81;101479.72;5505274;32;20066;-88
2022/10/20 10:29:47;;;;;;;5.60;4.72;;;;;;;17.42;47.41;101473.94;5508147;32;34791;-88
2022/10/20 10:32:49;;;;;;;7.15;5.07;;;;;;;17.68;46.48;101469.66;5494790;32;33824;-88
2022/10/20 10:35:52;;;;;;;7.53;5.60;;;;;;;17.75;45.59;101476.34;5467535;32;33086;-87
2022/10/20 10:38:55;;;;;;;7.57;5.28;;;;;;;20.86;39.07;101456.94;5492226;32;34387;-87
2022/10/20 10:42:24;;;;;;;5.40;4.87;;;;;;;21.95;35.88;101461.13;5496043;32;34205;-87
2022/10/20 10:45:39;;;;;;;5.30;4.62;;;;;;;20.51;38.54;101462.28;5494942;32;34806;-91
2022/10/20 11:53:58;;;;;;;9.95;4.30;;;;;;;15.42;52.43;101371.91;5513118;27;32118;-89
2022/10/20 12:12:05;;;;;;;3.62;3.30;;;;;;;15.44;50.83;101359.34;782495;30;20352;-90
2022/10/20 12:15:22;;;;;;;4.12;3.20;;;;;;;15.36;50.57;101357.06;5447992;32;30879;-89
2022/10/20 12:18:28;;;;;;;7.78;3.78;;;;;;;15.18;50.73;101356.25;5445843;32;32944;-87
2022/10/20 12:22:12;;;;;;;4.20;3.30;;;;;;;15.13;50.61;101355.66;5454195;32;34749;-88
2022/10/20 12:25:23;;;;;;;4.60;3.30;;;;;;;15.56;50.84;101355.09;5410128;32;33010;-88
2022/10/20 12:28:26;;;;;;;10.05;3.50;;;;;;;15.28;50.12;101345.94;5450220;32;34929;-88
2022/10/20 12:32:06;;;;;;;6.22;3.75;;;;;;;15.15;51.38;101340.38;5448504;32;34413;-89
2022/10/20 12:35:09;;;;;;;4.10;3.67;;;;;;;15.06;51.29;101337.28;5426308;32;33344;-87
2022/10/20 12:38:16;;;;;;;3.75;3.20;;;;;;;14.85;51.41;101333.06;5431374;32;33004;-87
2022/10/20 12:41:27;;;;;;;3.67;3.37;;;;;;;14.87;51.28;101332.03;5422120;32;32684;-85
2022/10/20 12:44:40;;;;;;;4.80;2.90;;;;;;;14.45;52.11;101334.16;5421952;32;33950;-87
2022/10/20 12:47:50;;;;;;;4.37;3.58;;;;;;;14.69;52.15;101332.00;5432277;32;34515;-86
2022/10/20 12:51:01;;;;;;;;;;;;;;;14.82;51.09;101326.94;5432254;32;33106;-91
2022/10/20 12:54:30;;;;;;;7.90;3.30;;;;;;;14.64;52.43;101320.69;5420422;32;34200;-87
2022/10/20 12:57:41;;;;;;;5.40;3.08;;;;;;;14.73;51.42;101311.34;5432022;32;33876;-86
2022/10/20 13:00:45;;;;;;;9.20;3.50;;;;;;;14.79;51.71;101307.53;5436614;32;32855;-87
2022/10/20 13:03:49;;;;;;;4.85;3.15;;;;;;;14.80;51.56;101309.25;5443798;32;34399;-89
2022/10/20 13:06:52;;;;;;;4.68;3.60;;;;;;;15.09;51.87;101313.03;5459781;32;34872;-88
2022/10/20 13:09:55;;;;;;;5.68;3.67;;;;;;;14.95;50.85;101299.56;5454116;32;34833;-87
2022/10/20 13:13:04;;;;;;;6.05;3.67;;;;;;;15.05;50.10;101298.13;5439302;32;33922;-86
2022/10/20 13:16:16;;;;;;;6.10;3.25;;;;;;;15.20;50.46;101300.91;5446193;32;34415;-87
2022/10/20 13:19:48;;;;;;;5.60;3.60;;;;;;;15.22;50.46;101304.34;5498436;27;33799;-89
2022/10/20 13:22:53;;;;;;;6.43;3.53;;;;;;;14.88;50.65;101291.00;5429009;32;32852;-86
2022/10/20 13:25:58;;;;;;;4.47;3.60;;;;;;;14.61;51.12;101294.16;5438442;32;33954;-86
2022/10/20 13:29:11;;;;;;;6.78;4.05;;;;;;;14.41;51.75;101297.87;5434960;32;33358;-86
2022/10/20 13:32:32;;;;;;;4.50;3.50;;;;;;;14.44;51.30;101297.72;5435326;32;34011;-86
2022/10/20 13:35:46;;;;;;;4.10;3.50;;;;;;;14.49;51.68;101300.16;5449895;32;34551;-86
2022/10/20 13:39:04;;;;;;;7.95;3.60;;;;;;;14.40;51.91;101296.16;5438149;32;32021;-93
2022/10/20 13:42:31;;;;;;;5.85;3.50;;;;;;;14.34;52.44;101291.97;5444896;32;33221;-88
2022/10/20 13:45:43;;;;;;;4.40;3.70;;;;;;;14.23;52.32;101291.69;5449462;32;33913;-87
2022/10/20 13:49:05;;;;;;;9.05;3.80;;;;;;;14.20;53.47;101294.47;5440798;32;33982;-88
2022/10/20 13:52:14;;;;;;;5.55;3.40;;;;;;;14.13;52.96;101289.47;5449398;32;34502;-87
2022/10/20 13:55:21;;;;;;;6.18;3.20;;;;;;;14.07;53.15;101286.25;5441085;32;33534;-86
2022/10/20 13:58:24;;;;;;;4.55;3.35;;;;;;;13.81;53.94;101293.72;5448255;32;34271;-87
2022/10/20 14:01:30;;;;;;;12.13;3.42;;;;;;;13.95;54.16;101277.03;5447942;32;32484;-86
2022/10/20 14:04:35;;;;;;;4.60;3.50;;;;;;;13.99;54.12;101287.47;5451425;32;34030;-85
2022/10/20 14:07:42;;;;;;;6.40;3.20;;;;;;;14.12;53.73;101285.06;5452766;32;34801;-85
2022/10/20 14:10:56;;;;;;;3.50;3.20;;;;;;;13.95;53.66;101275.25;5449844;32;32713;-86
2022/10/20 14:14:00;;;;;;;6.68;3.20;;;;;;;13.90;53.23;101274.59;5442464;32;34994;-86
2022/10/20 14:17:06;;;;;;;11.32;3.47;;;;;;;13.90;54.16;101268.41;5443392;32;34250;-86
2022/10/20 14:20:21;;;;;;;9.27;3.40;;;;;;;13.71;54.20;101270.19;5450729;32;34869;-85
2022/10/20 14:23:24;;;;;;;9.85;3.50;;;;;;;13.75;54.73;101268.22;5447840;32;34518;-87
2022/10/20 14:26:27;;;;;;;6.53;3.00;;;;;;;13.69;54.88;101264.03;5450969;32;33996;-86
2022/10/20 14:29:35;;;;;;;5.00;3.30;;;;;;;13.73;55.00;101270.09;5448059;32;35221;-90
2022/10/20 14:32:39;;;;;;;5.82;3.60;;;;;;;13.65;54.99;101270.47;5447520;32;34424;-91
2022/10/20 14:35:54;;;;;;;7.25;3.33;;;;;;;13.43;55.82;101266.12;5449899;32;34123;-88
2022/10/20 14:38:59;;;;;;;6.43;3.35;;;;;;;13.36;56.66;101259.38;5447073;32;32723;-87
2022/10/20 14:42:17;;;;;;;5.50;3.28;;;;;;;13.43;56.64;101257.28;5443518;32;32621;-87
2022/10/20 14:45:23;;;;;;;5.28;3.50;;;;;;;13.39;56.87;101261.03;5452807;32;33010;-86
2022/10/20 14:48:34;;;;;;;6.55;3.62;;;;;;;13.39;56.74;101263.69;5461510;32;32801;-86
2022/10/20 14:51:43;;;;;;;5.30;3.37;;;;;;;13.22;57.70;101265.34;5464067;32;34263;-86
2022/10/20 14:54:50;;;;;;;7.43;3.47;;;;;;;13.15;57.23;101259.44;5465558;32;34460;-86
2022/10/20 14:57:55;;;;;;;10.23;3.90;;;;;;;13.13;58.98;101253.31;5466470;32;34169;-87
2022/10/20 15:01:16;;;;;;;8.50;3.37;;;;;;;13.12;57.84;101259.56;5470453;32;32708;-87
2022/10/20 15:04:28;;;;;;;9.35;3.25;;;;;;;13.10;58.56;101249.94;5469492;32;33794;-87
2022/10/20 15:07:35;;;;;;;10.77;3.50;;;;;;;13.00;57.91;101254.81;5471450;32;35829;-87
2022/10/20 15:10:39;;;;;;;6.07;3.35;;;;;;;12.82;59.47;101252.06;5467044;32;33310;-86
2022/10/20 15:13:50;;;;;;;4.18;3.33;;;;;;;12.66;58.79;101251.88;5462207;32;33966;-87
2022/10/20 15:16:52;;;;;;;4.03;3.13;;;;;;;12.63;59.44;101244.06;5463315;32;33873;-87
2022/10/20 15:19:56;;;;;;;4.22;3.25;;;;;;;12.48;59.94;101240.25;5463521;32;34326;-87
2022/10/20 15:23:10;;;;;;;6.35;3.30;;;;;;;12.34;61.00;101248.84;5462515;32;34348;-87
2022/10/20 15:26:14;;;;;;;5.53;3.22;;;;;;;12.22;60.71;101240.44;5462187;32;34781;-87
2022/10/20 15:29:17;;;;;;;7.00;3.45;;;;;;;12.16;60.92;101240.72;5462198;32;33741;-89
2022/10/20 15:32:20;;;;;;;4.53;3.30;;;;;;;12.08;61.72;101234.88;5463089;32;35143;-90
2022/10/20 15:35:23;;;;;;;7.15;3.30;;;;;;;11.90;63.67;101236.44;5464055;32;35087;-90
